LES MASIES DE RODA (Osona)





Hora UTC 21:15
Temperatura 6.2 ºC
Sòl 15 cm 2.4 ºC
Subsòl 10 cm 9.2 ºC
Humitat 58.9 %
Pressió 1004.3 hPa
Pluja 0.0 mm
Velocitat vent 2.9 km/h
Direcció vent W
Radiació solar 0.1 W/m²

Dades diàries 2024-02-23



Hora UTC (hivern +1h; estiu +2h)
Temperatura (ºC) Humitat (%) Pressió (hPa) Velocitat vent (km/h) Precipitació (mm) Radiació solar (W/m²)
Hora UTC Aire Sòl 15 cm Subsòl 10 cm Humitat Pressió Vel. Dir. Vel. Max Dir. Intent. màx 5 min. Rad. Sol.
00:05 12.6 10.8 11.5 69.5 1002.1 3.5 WSW 3.5 W 0.0 0.1
00:10 12.5 10.6 11.5 69.3 1002.2 4.2 W 6.7 W 0.0 0.1
00:15 12.5 10.5 11.5 69.7 1002.1 3.3 WNW 6.4 WNW 0.0 0.1
00:20 12.4 10.5 11.5 70.2 1002.1 3.8 WNW 5.7 W 0.0 0.1
00:25 12.3 10.5 11.5 71.3 1002.2 4.6 SW 10.6 SW 0.0 0.1
00:30 12.3 10.9 11.4 70.5 1002.3 14.0 WSW 27.2 SW 0.0 0.1
00:35 12.2 11.1 11.4 72.0 1002.1 13.9 SW 23.7 SW 0.0 0.1
00:40 12.0 11.1 11.4 73.3 1002.0 11.3 WSW 24.0 SW 0.0 0.1
00:45 11.9 11.0 11.4 74.2 1001.9 10.5 SW 21.9 SSW 0.0 0.1
00:50 11.8 11.0 11.4 74.8 1001.8 9.5 SW 19.8 WSW 0.0 0.1
00:55 11.8 11.0 11.4 75.4 1001.8 10.9 SW 23.0 SW 0.0 0.1
01:00 11.7 10.9 11.3 76.0 1001.7 8.7 SW 14.1 SW 0.0 0.1
01:05 11.7 10.8 11.3 76.7 1001.7 10.2 SW 17.7 SW 0.0 0.1
01:10 11.6 10.8 11.3 77.2 1001.7 13.3 WSW 22.2 SW 0.0 0.1
01:15 11.5 10.7 11.3 77.9 1001.8 14.6 SW 26.5 SW 0.0 0.1
01:20 11.4 10.7 11.3 78.7 1001.9 13.7 SW 21.5 WSW 0.0 0.1
01:25 11.2 10.6 11.3 79.5 1002.1 16.1 SW 25.8 SW 0.0 0.1
01:30 11.1 10.5 11.2 80.6 1002.4 12.5 SW 21.5 SW 0.0 0.1
01:35 11.0 10.4 11.2 81.7 1002.4 12.4 SW 23.7 SW 0.0 0.1
01:40 10.8 10.2 11.2 83.2 1002.5 15.4 SW 28.6 S 0.0 0.1
01:45 10.8 10.2 11.2 83.5 1002.5 14.6 SW 26.5 WSW 0.0 0.1
01:50 10.7 10.1 11.1 84.1 1002.3 16.8 SW 26.8 WSW 0.0 0.1
01:55 10.6 10.0 11.1 84.8 1002.3 16.4 WSW 27.9 SW 0.0 0.1
02:00 10.6 10.0 11.1 80.1 1002.4 16.6 W 36.4 WNW 0.0 0.1
02:05 10.4 9.6 11.1 76.3 1002.4 22.8 WNW 34.6 WNW 0.0 0.1
02:10 10.0 9.2 11.0 76.3 1002.4 19.3 WNW 32.1 NW 0.0 0.1
02:15 9.6 8.9 11.0 76.1 1002.4 17.8 WNW 31.4 W 0.0 0.1
02:20 9.4 8.7 11.0 77.0 1002.2 12.9 NW 27.2 WNW 0.0 0.1
02:25 9.2 8.6 10.9 77.2 1002.2 14.2 WNW 28.2 WNW 0.0 0.1
02:30 9.2 8.5 10.9 76.8 1002.2 15.4 WNW 23.7 WNW 0.0 0.1
02:35 9.1 8.3 10.8 75.9 1002.1 18.2 WNW 29.3 WNW 0.0 0.1
02:40 8.9 8.1 10.8 74.7 1002.3 16.0 WNW 25.1 W 0.0 0.1
02:45 8.8 7.9 10.7 74.2 1002.2 13.4 WNW 19.4 WNW 0.0 0.1
02:50 8.7 7.7 10.6 74.1 1002.1 10.9 WNW 16.6 WNW 0.0 0.1
02:55 8.5 7.3 10.6 74.8 1002.2 7.9 NW 10.6 NW 0.0 0.1
03:00 8.3 7.1 10.5 74.7 1002.2 11.0 NW 18.0 NW 0.0 0.1
03:05 8.2 7.0 10.5 75.2 1002.1 10.6 WNW 15.5 NW 0.0 0.1
03:10 8.1 7.0 10.4 75.3 1002.0 13.7 WNW 24.0 NW 0.0 0.1
03:15 8.2 7.1 10.4 74.3 1002.0 18.2 WNW 24.4 WNW 0.0 0.1
03:20 8.2 7.2 10.3 73.9 1001.9 17.9 WNW 28.9 WNW 0.0 0.1
03:25 8.3 7.2 10.3 72.8 1001.9 15.6 W 23.3 WNW 0.0 0.1
03:30 8.3 7.2 10.2 71.3 1001.9 12.5 W 20.5 W 0.0 0.1
03:35 8.2 7.2 10.2 71.5 1002.0 6.1 WNW 12.0 W 0.0 0.1
03:40 8.2 7.0 10.1 71.0 1002.2 3.6 SSE 9.5 SSW 0.0 0.1
03:45 8.2 7.1 10.1 70.5 1002.4 3.9 SSW 10.6 SW 0.0 0.1
03:50 8.1 7.1 10.0 70.7 1002.5 3.1 N 7.4 N 0.0 0.1
03:55 8.0 7.1 10.0 70.3 1002.5 8.9 NW 13.1 NW 0.0 0.1
04:00 7.9 7.0 10.0 70.7 1002.4 7.9 NW 11.7 NW 0.0 0.1
04:05 7.8 6.9 10.0 71.5 1002.3 9.1 NW 14.8 NNW 0.0 0.1
04:10 7.7 6.9 9.9 71.5 1002.3 10.6 NW 17.0 WNW 0.0 0.1
04:15 7.6 6.8 9.9 71.6 1002.2 11.3 NW 18.0 NW 0.0 0.1
04:20 7.5 6.8 9.9 71.9 1002.2 14.1 NW 22.6 NW 0.0 0.1
04:25 7.5 6.8 9.8 72.0 1002.2 10.7 NW 18.4 WNW 0.0 0.1
04:30 7.5 6.8 9.8 71.9 1002.3 12.1 WNW 22.6 WNW 0.0 0.1
04:35 7.5 6.8 9.8 71.4 1002.2 12.0 WNW 17.3 W 0.0 0.1
04:40 7.6 6.8 9.8 71.1 1002.3 8.3 WNW 16.2 WNW 0.0 0.1
04:45 7.5 6.8 9.7 71.2 1002.4 11.8 WNW 18.0 WNW 0.0 0.1
04:50 7.5 6.8 9.7 71.0 1002.4 10.9 WNW 16.2 W 0.0 0.1
04:55 7.4 6.6 9.7 71.1 1002.4 9.1 WNW 13.1 WNW 0.0 0.1
05:00 7.3 6.6 9.7 71.3 1002.6 10.2 WNW 15.2 W 0.0 0.1
05:05 7.3 6.5 9.6 71.4 1002.6 9.9 WNW 15.9 WNW 0.0 0.1
05:10 7.2 6.5 9.6 71.8 1002.6 6.6 WNW 9.5 W 0.0 0.1
05:15 7.2 6.4 9.6 71.8 1002.6 7.8 W 13.4 W 0.0 0.1
05:20 7.1 6.3 9.6 71.3 1002.5 11.7 W 19.8 WSW 0.0 0.1
05:25 7.0 6.2 9.5 71.6 1002.6 10.5 WNW 17.0 WNW 0.0 0.1
05:30 6.9 6.1 9.5 71.8 1002.6 8.7 WNW 14.1 WNW 0.0 0.1
05:35 6.9 6.0 9.4 72.3 1002.6 8.0 WNW 13.8 W 0.0 0.1
05:40 6.8 5.8 9.4 73.1 1002.7 6.5 WNW 11.0 WNW 0.0 0.1
05:45 6.7 5.8 9.4 72.8 1002.7 10.9 WNW 17.7 WNW 0.0 0.1
05:50 6.6 5.6 9.3 73.0 1002.6 8.8 NW 16.2 NW 0.0 0.1
05:55 6.4 5.3 9.3 73.6 1002.7 6.7 WNW 12.0 W 0.0 0.1
06:00 6.4 5.4 9.3 73.7 1002.8 10.2 WNW 16.2 NW 0.0 0.1
06:05 6.4 5.6 9.2 73.7 1002.9 9.2 WNW 12.7 W 0.0 0.1
06:10 6.5 5.7 9.2 74.0 1002.9 7.3 WNW 10.3 NW 0.0 0.1
06:15 6.4 5.7 9.2 74.4 1003.0 5.3 WNW 8.5 WNW 0.0 0.1
06:20 6.3 5.5 9.2 74.7 1002.9 8.7 WNW 14.5 WNW 0.0 0.1
06:25 6.2 5.1 9.1 74.6 1002.8 8.6 WNW 12.4 W 0.0 0.3
06:30 5.9 4.5 9.1 75.5 1002.9 8.6 WNW 14.1 WNW 0.0 0.9
06:35 5.7 4.2 9.0 76.5 1002.9 7.7 WNW 11.3 WNW 0.0 1.8
06:40 5.6 4.2 9.0 77.1 1003.0 8.7 WNW 14.8 W 0.0 2.5
06:45 5.6 4.4 8.9 77.5 1003.2 7.6 WNW 11.0 W 0.0 3.1
06:50 5.7 4.8 8.9 77.1 1003.2 5.7 WSW 9.9 W 0.0 3.7
06:55 5.8 5.0 8.9 77.2 1003.3 4.8 SW 10.3 WSW 0.0 4.2
07:00 5.9 5.3 8.9 76.2 1003.4 7.1 WSW 10.6 WSW 0.0 5.1
07:05 6.0 5.4 8.8 76.0 1003.4 6.3 SW 10.3 SW 0.0 7.5
07:10 6.0 5.5 8.8 75.6 1003.4 6.6 SW 12.0 SW 0.0 13.3
07:15 6.0 5.6 8.8 75.5 1003.5 8.2 WSW 13.4 WSW 0.0 19.6
07:20 6.0 5.6 8.8 75.7 1003.6 7.3 W 12.0 W 0.0 24.2
07:25 6.0 5.7 8.8 76.2 1003.7 5.0 W 7.8 W 0.0 28.2
07:30 6.1 5.8 8.8 76.6 1003.8 4.2 W 6.4 W 0.0 30.3
07:35 6.1 5.9 8.8 76.2 1003.9 3.7 W 8.1 WSW 0.0 32.1
07:40 6.2 6.0 8.8 75.4 1004.0 6.2 SW 8.8 SSW 0.0 39.8
07:45 6.2 6.2 8.8 75.2 1004.0 5.5 SW 9.2 SW 0.0 49.6
07:50 6.3 6.3 8.8 74.8 1004.1 6.7 WSW 12.7 W 0.0 57.4
07:55 6.3 6.4 8.8 75.1 1004.2 6.2 W 12.4 WSW 0.0 50.1
08:00 6.4 6.4 8.9 74.9 1004.2 6.6 WSW 11.7 WSW 0.0 57.1
08:05 6.4 6.5 8.9 74.6 1004.3 6.3 WSW 13.4 SW 0.0 61.0
08:10 6.4 6.6 8.9 74.3 1004.3 6.9 SW 13.1 SSW 0.0 75.4
08:15 6.5 6.7 8.9 74.1 1004.2 5.9 SW 8.8 WSW 0.0 98.7
08:20 6.5 6.8 8.9 74.0 1004.3 6.6 W 9.9 WNW 0.0 121.1
08:25 6.6 7.0 8.9 74.3 1004.3 6.0 WNW 8.1 WNW 0.0 109.0
08:30 6.7 7.2 9.0 73.9 1004.4 4.7 W 7.1 WSW 0.0 136.9
08:35 6.8 7.4 9.0 73.2 1004.5 1.6 SW 3.9 SW 0.0 85.4
08:40 6.8 7.3 9.0 73.0 1004.5 4.1 W 7.4 W 0.0 76.6
08:45 6.9 7.3 9.1 73.2 1004.5 8.4 WSW 17.3 WSW 0.0 89.1
08:50 6.9 7.4 9.1 72.9 1004.6 8.0 WSW 13.8 SW 0.0 121.3
08:55 7.0 7.7 9.1 72.4 1004.5 9.0 W 15.2 W 0.0 138.5
09:00 7.0 7.9 9.1 71.0 1004.5 9.4 WSW 14.1 W 0.0 217.8
09:05 7.5 9.0 9.2 70.7 1004.5 11.3 WNW 18.0 WNW 0.0 283.5
09:10 7.6 9.1 9.3 70.1 1004.5 9.6 NW 14.8 NW 0.0 318.0
09:15 8.0 10.0 9.4 67.8 1004.4 12.8 NW 20.1 NW 0.0 309.5
09:20 7.9 9.9 9.5 67.3 1004.4 10.9 NW 17.7 WNW 0.0 296.1
09:25 7.7 9.0 9.7 67.2 1004.4 12.9 WNW 19.8 WNW 0.0 120.7
09:30 7.3 8.1 9.7 68.5 1004.5 13.0 NW 20.8 NW 0.0 117.0
09:35 7.2 7.7 9.7 69.5 1004.6 15.2 WNW 28.6 NW 0.0 112.1
09:40 7.1 7.7 9.6 70.0 1004.7 14.6 WNW 24.7 W 0.0 177.3
09:45 7.2 8.3 9.6 70.4 1004.7 15.0 WNW 23.3 WNW 0.0 198.4
09:50 7.4 9.0 9.6 70.3 1004.8 11.6 WNW 17.3 WNW 0.0 345.1
09:55 7.9 10.9 9.7 68.5 1004.7 10.6 NNW 16.2 NW 0.0 458.6
10:00 8.2 11.2 9.9 68.3 1004.7 11.4 NNW 19.1 N 0.0 283.5
10:05 8.0 10.2 10.0 67.1 1004.7 7.1 NW 15.2 NW 0.0 144.9
10:10 7.8 9.6 10.1 67.5 1004.7 8.9 NW 14.1 WNW 0.0 140.9
10:15 7.7 9.2 10.1 66.6 1004.7 13.1 WNW 22.2 W 0.0 175.1
10:20 7.7 9.0 10.1 65.9 1004.8 10.4 WNW 17.0 WNW 0.0 181.7
10:25 7.8 9.5 10.1 66.8 1004.8 9.9 NNW 14.5 NNW 0.0 207.4
10:30 8.0 9.9 10.1 65.9 1004.7 8.7 NW 16.6 NW 0.0 232.2
10:35 8.3 10.6 10.2 65.8 1004.7 7.7 NW 12.4 NW 0.0 248.5
10:40 8.6 11.1 10.3 64.6 1004.6 2.9 NW 6.7 WNW 0.0 272.6
10:45 8.9 11.1 10.4 64.0 1004.6 6.0 NNW 14.1 N 0.0 171.5
10:50 8.9 10.9 10.5 62.6 1004.6 4.9 N 9.2 NNE 0.0 273.1
10:55 8.7 11.6 10.5 60.1 1004.5 6.8 NNE 21.2 NE 0.0 474.7
11:00 9.4 14.2 10.7 60.6 1004.5 7.8 NNW 16.2 WNW 0.0 747.5
11:05 10.1 15.6 11.0 54.7 1004.4 11.2 WNW 17.0 WNW 0.0 724.4
11:10 10.8 15.8 11.3 54.0 1004.3 7.2 WNW 16.2 NNW 0.0 724.1
11:15 10.9 18.0 11.7 54.5 1004.4 6.0 ESE 12.0 SSW 0.0 737.5
11:20 11.0 17.4 12.1 51.6 1004.4 8.6 WNW 19.1 NNW 0.0 477.9
11:25 10.5 14.6 12.4 54.6 1004.4 10.0 WNW 14.5 WNW 0.0 253.4
11:30 9.9 13.3 12.4 58.6 1004.5 5.9 NNE 11.0 NNW 0.0 182.8
11:35 9.5 13.0 12.4 58.8 1004.4 7.4 ENE 11.0 ENE 0.0 168.6
11:40 9.3 12.3 12.4 57.9 1004.2 9.5 ENE 14.8 ENE 0.0 224.0
11:45 9.2 12.0 12.3 58.0 1004.2 9.2 ENE 14.1 ENE 0.0 169.6
11:50 9.2 11.4 12.3 55.6 1004.1 4.4 NE 12.4 NNE 0.0 162.0
11:55 9.3 11.5 12.2 54.1 1004.1 2.7 E 5.7 E 0.0 176.6
12:00 9.5 11.5 12.2 55.5 1004.1 4.3 NNW 7.1 NW 0.0 172.5
12:05 9.6 11.4 12.1 56.1 1004.1 5.3 NNW 11.0 N 0.0 217.8
12:10 9.9 12.6 12.1 56.0 1003.9 6.2 NNW 10.3 NNW 0.0 380.2
12:15 10.1 12.6 12.2 54.3 1003.8 4.7 NNW 8.8 NNW 0.0 184.7
12:20 10.3 13.5 12.2 56.2 1003.8 5.6 NW 10.3 NW 0.0 574.4
12:25 10.6 14.3 12.4 53.2 1003.7 7.9 NW 11.7 NW 0.0 212.0
12:30 10.7 14.1 12.5 52.5 1003.7 6.6 W 10.6 W 0.0 454.4
12:35 11.4 15.6 12.7 50.8 1003.6 7.1 W 14.8 WNW 0.0 650.6
12:40 11.6 16.9 12.9 49.6 1003.5 9.8 WNW 15.2 WNW 0.0 600.2
12:45 11.9 18.8 13.2 46.9 1003.3 4.0 NNE 10.3 ENE 0.0 692.9
12:50 12.5 20.0 13.5 46.2 1003.2 6.4 WSW 12.0 W 0.0 643.8
12:55 12.5 17.3 13.8 44.8 1003.1 7.6 WSW 13.1 WSW 0.0 271.1
13:00 12.1 14.9 13.9 45.2 1003.0 11.4 W 18.7 WNW 0.0 176.2
13:05 11.6 13.0 13.9 46.5 1003.0 12.6 NW 21.9 NW 0.0 148.3
13:10 11.2 12.9 13.8 47.0 1002.9 6.0 N 10.3 N 0.0 207.5
13:15 11.5 13.7 13.7 46.0 1002.8 7.7 W 18.4 W 0.0 440.2
13:20 12.6 16.9 13.7 42.9 1002.7 16.2 W 26.1 WNW 0.0 637.1
13:25 12.7 16.0 13.8 41.8 1002.6 12.3 WSW 21.9 W 0.0 441.7
13:30 12.7 15.5 13.9 41.5 1002.4 12.4 WSW 25.1 WSW 0.0 317.5
13:35 12.3 13.7 14.0 40.7 1002.4 13.2 WNW 19.8 WNW 0.0 142.0
13:40 12.2 13.7 13.9 39.9 1002.4 14.0 WNW 25.4 WNW 0.0 281.7
13:45 12.1 13.2 13.9 39.5 1002.3 16.0 WNW 25.8 WNW 0.0 194.4
13:50 12.6 15.5 13.8 39.1 1002.3 14.2 W 20.8 W 0.0 660.7
13:55 13.5 17.4 13.9 37.2 1002.3 15.8 W 27.5 W 0.0 612.8
14:00 13.7 18.1 14.1 37.6 1002.3 18.1 WNW 34.9 W 0.0 616.8
14:05 13.6 16.5 14.3 36.9 1002.3 18.3 W 30.4 WNW 0.0 321.7
14:10 13.0 14.9 14.4 37.1 1002.2 18.7 W 33.5 W 0.0 407.4
14:15 13.2 16.0 14.4 37.1 1002.2 19.9 WNW 31.8 WNW 0.0 433.3
14:20 13.4 16.2 14.4 36.6 1002.2 20.6 WNW 32.1 WNW 0.0 316.7
14:25 13.4 16.2 14.5 38.4 1002.1 18.3 WNW 27.9 WNW 0.0 552.1
14:30 13.6 16.7 14.5 37.6 1002.0 20.9 WSW 33.9 W 0.0 549.7
14:35 13.5 16.5 14.6 38.2 1002.0 22.9 W 34.2 SW 0.0 555.4
14:40 13.6 16.9 14.7 38.5 1002.1 20.1 W 32.8 WSW 0.0 539.6
14:45 13.5 16.3 14.8 38.4 1002.0 21.7 WSW 36.4 SW 0.0 537.7
14:50 13.5 16.2 14.8 39.8 1002.0 20.0 WSW 40.6 W 0.0 429.0
14:55 13.3 15.4 14.9 40.4 1002.0 20.4 WSW 37.4 WSW 0.0 392.2
15:00 13.4 15.7 14.9 40.5 1002.0 16.8 WSW 34.9 SW 0.0 482.4
15:05 13.6 16.2 14.8 39.8 1001.9 20.2 W 41.3 WSW 0.0 486.4
15:10 13.4 15.9 14.8 39.3 1002.0 21.1 WSW 40.2 SW 0.0 499.5
15:15 13.6 16.6 14.8 39.2 1002.0 18.8 WSW 38.5 WSW 0.0 499.6
15:20 13.6 16.4 14.8 38.7 1002.1 21.1 WSW 37.8 WSW 0.0 486.5
15:25 13.6 16.8 14.8 39.1 1002.1 17.5 WSW 34.9 WNW 0.0 484.3
15:30 13.9 17.3 14.9 38.3 1002.1 19.3 W 32.5 WSW 0.0 474.8
15:35 13.7 17.0 14.9 38.0 1002.1 18.5 W 34.9 W 0.0 475.1
15:40 13.9 17.5 15.0 37.3 1002.1 19.8 WNW 34.6 WSW 0.0 440.3
15:45 13.8 16.7 15.0 36.9 1002.1 21.6 W 41.6 W 0.0 405.3
15:50 13.2 15.4 15.0 37.6 1002.0 24.6 WSW 42.0 W 0.0 377.1
15:55 13.1 15.5 14.9 38.1 1002.1 21.1 W 32.8 W 0.0 360.1
16:00 13.1 15.5 14.9 38.3 1002.1 21.0 W 31.8 WNW 0.0 334.8
16:05 13.2 15.5 14.8 38.7 1002.1 20.4 WNW 34.2 NW 0.0 304.4
16:10 13.2 15.2 14.8 38.4 1002.1 20.1 W 33.5 W 0.0 283.7
16:15 12.9 14.4 14.7 38.2 1002.1 19.6 W 33.9 W 0.0 272.9
16:20 12.8 13.9 14.7 38.4 1002.1 18.5 W 31.8 W 0.0 263.7
16:25 12.6 12.9 14.6 38.3 1002.2 19.6 W 32.5 W 0.0 248.8
16:30 12.6 12.9 14.5 37.8 1002.2 17.5 W 27.2 WSW 0.0 228.1
16:35 12.5 12.5 14.3 37.9 1002.4 17.5 W 28.6 WNW 0.0 199.7
16:40 12.4 12.1 14.2 37.9 1002.4 23.6 WNW 36.0 W 0.0 174.1
16:45 12.3 12.2 14.1 38.2 1002.5 14.4 W 21.5 W 0.0 158.0
16:50 12.2 12.0 14.0 37.6 1002.6 17.7 WSW 36.0 WSW 0.0 144.7
16:55 12.0 11.6 13.9 37.6 1002.7 17.5 W 35.7 W 0.0 129.5
17:00 12.0 11.8 13.8 37.9 1002.7 15.6 WSW 27.5 WSW 0.0 118.3
17:05 11.8 11.4 13.7 37.2 1002.8 17.3 WSW 31.4 WSW 0.0 113.0
17:10 11.6 11.0 13.6 37.5 1002.9 15.4 WSW 33.5 WSW 0.0 80.5
17:15 11.4 10.7 13.5 38.1 1002.9 15.5 W 23.7 W 0.0 65.8
17:20 11.3 10.3 13.4 38.5 1002.9 15.6 W 26.5 WNW 0.0 56.8
17:25 11.0 9.9 13.2 38.9 1002.9 14.9 WNW 29.3 WNW 0.0 24.5
17:30 10.8 9.5 13.1 38.3 1002.9 21.6 WNW 34.9 NW 0.0 16.4
17:35 10.7 9.4 13.0 38.8 1003.0 17.7 W 27.5 W 0.0 9.9
17:40 10.5 9.0 12.9 40.0 1003.2 14.9 W 28.6 WSW 0.0 3.3
17:45 10.4 9.0 12.8 41.2 1003.3 13.6 W 25.1 W 0.0 1.7
17:50 10.2 8.8 12.6 42.7 1003.3 17.1 W 30.4 W 0.0 0.7
17:55 10.1 8.6 12.5 43.6 1003.3 17.5 W 34.2 W 0.0 0.3
18:00 9.9 8.3 12.4 44.5 1003.4 14.7 W 28.2 W 0.0 0.1
18:05 9.8 8.3 12.3 45.0 1003.3 17.3 W 31.8 WNW 0.0 0.1
18:10 9.7 8.3 12.2 45.1 1003.3 19.1 WNW 32.8 W 0.0 0.1
18:15 9.6 8.2 12.1 45.4 1003.4 24.1 W 35.7 W 0.0 0.1
18:20 9.5 8.1 12.0 45.5 1003.4 25.6 WNW 40.9 WNW 0.0 0.1
18:25 9.4 8.0 11.9 45.7 1003.6 22.9 WNW 38.8 W 0.0 0.1
18:30 9.2 7.6 11.8 46.5 1003.7 15.6 W 25.1 WNW 0.0 0.1
18:35 9.1 7.4 11.7 46.8 1003.7 14.7 W 24.0 WNW 0.0 0.1
18:40 9.0 7.3 11.6 47.2 1003.8 14.9 W 25.8 W 0.0 0.1
18:45 8.9 7.2 11.5 47.5 1003.8 15.7 W 29.3 WSW 0.0 0.1
18:50 8.8 7.1 11.4 47.9 1003.9 15.0 W 27.9 WNW 0.0 0.1
18:55 8.8 7.0 11.3 47.7 1003.9 14.8 W 24.0 WNW 0.0 0.1
19:00 8.7 7.1 11.2 48.1 1004.0 16.0 W 24.4 W 0.0 0.1
19:05 8.7 7.0 11.1 48.0 1004.0 14.4 W 27.2 W 0.0 0.1
19:10 8.6 6.9 11.0 48.2 1004.0 13.8 W 23.0 WNW 0.0 0.1
19:15 8.7 7.0 10.9 47.7 1004.0 14.6 W 29.7 W 0.0 0.1
19:20 8.6 6.8 10.9 48.1 1004.0 11.9 W 25.1 WNW 0.0 0.1
19:25 8.5 6.6 10.8 48.7 1004.0 10.6 W 21.9 W 0.0 0.1
19:30 8.5 6.6 10.7 49.1 1004.1 17.5 W 31.8 WNW 0.0 0.1
19:35 8.6 7.0 10.6 48.7 1004.1 17.2 W 29.3 WNW 0.0 0.1
19:40 8.5 6.8 10.6 49.0 1004.2 14.1 W 25.8 W 0.0 0.1
19:45 8.5 6.6 10.5 49.3 1004.1 13.3 W 22.6 WNW 0.0 0.1
19:50 8.4 6.6 10.4 49.4 1004.1 15.0 W 24.0 W 0.0 0.1
19:55 8.4 6.6 10.4 49.8 1004.2 14.4 W 29.7 WNW 0.0 0.1
20:00 8.5 6.9 10.3 49.5 1004.3 16.9 W 26.8 WSW 0.0 0.1
20:05 8.5 6.8 10.2 49.7 1004.4 12.8 W 25.1 W 0.0 0.1
20:10 8.4 6.7 10.2 50.0 1004.5 11.7 WSW 21.2 WSW 0.0 0.1
20:15 8.4 6.7 10.1 50.6 1004.4 11.5 WSW 20.8 WNW 0.0 0.1
20:20 8.3 6.3 10.1 51.1 1004.5 9.1 W 15.2 W 0.0 0.1
20:25 8.0 5.6 10.0 52.0 1004.6 7.6 W 10.6 W 0.0 0.1
20:30 7.9 5.5 9.9 52.4 1004.6 8.1 W 12.4 W 0.0 0.1
20:35 7.7 5.1 9.9 52.9 1004.6 7.2 W 10.6 WNW 0.0 0.1
20:40 7.4 4.5 9.8 53.9 1004.5 7.2 WNW 10.6 W 0.0 0.1
20:45 7.1 4.0 9.7 55.1 1004.4 8.0 WNW 10.6 W 0.0 0.1
20:50 7.0 3.7 9.6 55.6 1004.3 6.5 WNW 14.5 WNW 0.0 0.1
20:55 6.9 3.4 9.5 56.1 1004.3 5.5 NW 8.8 NW 0.0 0.1
21:00 6.7 3.4 9.5 56.7 1004.3 4.2 WNW 7.1 WNW 0.0 0.1
21:05 6.6 3.1 9.4 57.3 1004.3 5.1 WNW 8.5 WNW 0.0 0.1
21:10 6.4 2.9 9.3 57.7 1004.3 4.2 W 6.0 WNW 0.0 0.1
21:15 6.2 2.4 9.2 58.9 1004.3 2.9 W 4.6 W 0.0 0.1
Màxima 14.1 20.0 15.0 84.8 1004.8 25.6 WNW 42.0 W 0.0 747.5
Mínima 5.5 2.4 8.8 36.6 1001.7
Total 0.0